sensor_id;sensor_type;location;lat;lon;timestamp;P1;durP1;ratioP1;P2;durP2;ratioP2
25555;SDS011;13447;57.174;-2.112;2022-07-29T00:01:39;9.93;;;6.18;;
25555;SDS011;13447;57.174;-2.112;2022-07-29T00:04:07;6.03;;;4.90;;
25555;SDS011;13447;57.174;-2.112;2022-07-29T00:06:34;11.57;;;8.10;;
25555;SDS011;13447;57.174;-2.112;2022-07-29T00:09:01;7.80;;;5.65;;
25555;SDS011;13447;57.174;-2.112;2022-07-29T00:11:28;5.65;;;4.15;;
25555;SDS011;13447;57.174;-2.112;2022-07-29T00:13:55;7.28;;;5.05;;
25555;SDS011;13447;57.174;-2.112;2022-07-29T00:16:22;6.25;;;4.22;;
25555;SDS011;13447;57.174;-2.112;2022-07-29T00:18:49;6.72;;;4.63;;
25555;SDS011;13447;57.174;-2.112;2022-07-29T00:21:16;5.38;;;4.10;;
25555;SDS011;13447;57.174;-2.112;2022-07-29T00:23:43;3.08;;;2.85;;
25555;SDS011;13447;57.174;-2.112;2022-07-29T00:26:10;7.63;;;5.10;;
25555;SDS011;13447;57.174;-2.112;2022-07-29T00:28:37;4.72;;;3.00;;
25555;SDS011;13447;57.174;-2.112;2022-07-29T00:31:04;6.90;;;5.22;;
25555;SDS011;13447;57.174;-2.112;2022-07-29T00:33:31;7.43;;;5.93;;
25555;SDS011;13447;57.174;-2.112;2022-07-29T00:35:58;5.30;;;4.50;;
25555;SDS011;13447;57.174;-2.112;2022-07-29T00:38:25;8.82;;;6.55;;
25555;SDS011;13447;57.174;-2.112;2022-07-29T00:40:52;5.47;;;4.63;;
25555;SDS011;13447;57.174;-2.112;2022-07-29T00:43:18;5.85;;;4.32;;
25555;SDS011;13447;57.174;-2.112;2022-07-29T00:45:45;10.68;;;6.57;;
25555;SDS011;13447;57.174;-2.112;2022-07-29T00:48:12;7.47;;;4.22;;
25555;SDS011;13447;57.174;-2.112;2022-07-29T00:50:39;7.60;;;5.60;;
25555;SDS011;13447;57.174;-2.112;2022-07-29T00:53:07;3.78;;;3.38;;
25555;SDS011;13447;57.174;-2.112;2022-07-29T00:55:34;8.75;;;5.75;;
25555;SDS011;13447;57.174;-2.112;2022-07-29T00:58:02;8.95;;;6.45;;
25555;SDS011;13447;57.174;-2.112;2022-07-29T01:00:29;6.43;;;5.75;;
25555;SDS011;13447;57.174;-2.112;2022-07-29T01:02:57;4.05;;;3.65;;
25555;SDS011;13447;57.174;-2.112;2022-07-29T01:05:25;7.57;;;5.40;;
25555;SDS011;13447;57.174;-2.112;2022-07-29T01:08:14;8.57;;;5.45;;
25555;SDS011;13447;57.174;-2.112;2022-07-29T01:10:42;11.80;;;6.57;;
25555;SDS011;13447;57.174;-2.112;2022-07-29T01:13:10;6.55;;;4.63;;
25555;SDS011;13447;57.174;-2.112;2022-07-29T01:15:43;7.93;;;5.88;;
25555;SDS011;13447;57.174;-2.112;2022-07-29T01:26:49;10.38;;;7.00;;
25555;SDS011;13447;57.174;-2.112;2022-07-29T01:29:25;7.25;;;5.22;;
25555;SDS011;13447;57.174;-2.112;2022-07-29T01:32:07;12.75;;;9.15;;
25555;SDS011;13447;57.174;-2.112;2022-07-29T01:40:49;14.77;;;9.27;;
25555;SDS011;13447;57.174;-2.112;2022-07-29T01:43:20;10.27;;;7.30;;
25555;SDS011;13447;57.174;-2.112;2022-07-29T01:45:56;15.02;;;9.02;;
25555;SDS011;13447;57.174;-2.112;2022-07-29T01:48:28;15.00;;;9.73;;
25555;SDS011;13447;57.174;-2.112;2022-07-29T01:51:25;10.02;;;7.38;;
25555;SDS011;13447;57.174;-2.112;2022-07-29T01:56:47;11.43;;;7.65;;
25555;SDS011;13447;57.174;-2.112;2022-07-29T01:59:17;7.50;;;5.82;;
25555;SDS011;13447;57.174;-2.112;2022-07-29T02:01:47;13.02;;;9.18;;
25555;SDS011;13447;57.174;-2.112;2022-07-29T02:04:20;16.45;;;8.65;;
25555;SDS011;13447;57.174;-2.112;2022-07-29T02:06:56;7.22;;;5.32;;
25555;SDS011;13447;57.174;-2.112;2022-07-29T02:09:27;12.93;;;8.82;;
25555;SDS011;13447;57.174;-2.112;2022-07-29T02:11:56;12.77;;;9.02;;
25555;SDS011;13447;57.174;-2.112;2022-07-29T02:14:25;12.18;;;7.85;;
25555;SDS011;13447;57.174;-2.112;2022-07-29T02:16:54;12.38;;;8.10;;
25555;SDS011;13447;57.174;-2.112;2022-07-29T02:19:24;11.07;;;8.13;;
25555;SDS011;13447;57.174;-2.112;2022-07-29T02:21:54;9.23;;;6.88;;
25555;SDS011;13447;57.174;-2.112;2022-07-29T02:24:22;9.07;;;5.65;;
25555;SDS011;13447;57.174;-2.112;2022-07-29T02:26:51;4.43;;;3.30;;
25555;SDS011;13447;57.174;-2.112;2022-07-29T02:29:20;6.18;;;4.68;;
25555;SDS011;13447;57.174;-2.112;2022-07-29T02:31:49;2.85;;;2.60;;
25555;SDS011;13447;57.174;-2.112;2022-07-29T02:34:18;6.95;;;5.15;;
25555;SDS011;13447;57.174;-2.112;2022-07-29T02:36:47;3.15;;;2.85;;
25555;SDS011;13447;57.174;-2.112;2022-07-29T02:39:15;5.80;;;4.70;;
25555;SDS011;13447;57.174;-2.112;2022-07-29T02:44:14;10.02;;;4.85;;
25555;SDS011;13447;57.174;-2.112;2022-07-29T02:46:50;4.53;;;3.28;;
25555;SDS011;13447;57.174;-2.112;2022-07-29T02:52:29;7.10;;;4.82;;
25555;SDS011;13447;57.174;-2.112;2022-07-29T02:57:44;3.85;;;2.75;;
25555;SDS011;13447;57.174;-2.112;2022-07-29T03:00:20;4.30;;;3.78;;
25555;SDS011;13447;57.174;-2.112;2022-07-29T03:02:50;5.00;;;2.60;;
25555;SDS011;13447;57.174;-2.112;2022-07-29T03:05:20;6.00;;;3.75;;
25555;SDS011;13447;57.174;-2.112;2022-07-29T03:07:55;4.25;;;3.40;;
25555;SDS011;13447;57.174;-2.112;2022-07-29T03:10:26;3.17;;;2.63;;
25555;SDS011;13447;57.174;-2.112;2022-07-29T03:12:55;3.63;;;2.95;;
25555;SDS011;13447;57.174;-2.112;2022-07-29T03:15:24;3.50;;;3.15;;
25555;SDS011;13447;57.174;-2.112;2022-07-29T03:17:52;5.22;;;4.45;;
25555;SDS011;13447;57.174;-2.112;2022-07-29T03:20:20;5.32;;;4.05;;
25555;SDS011;13447;57.174;-2.112;2022-07-29T03:22:48;4.00;;;3.60;;
25555;SDS011;13447;57.174;-2.112;2022-07-29T03:25:16;3.90;;;2.72;;
25555;SDS011;13447;57.174;-2.112;2022-07-29T03:27:44;3.85;;;2.67;;
25555;SDS011;13447;57.174;-2.112;2022-07-29T03:30:12;6.13;;;3.75;;
25555;SDS011;13447;57.174;-2.112;2022-07-29T03:32:45;7.50;;;5.07;;
25555;SDS011;13447;57.174;-2.112;2022-07-29T03:35:12;5.82;;;4.80;;
25555;SDS011;13447;57.174;-2.112;2022-07-29T03:37:40;6.05;;;4.60;;
25555;SDS011;13447;57.174;-2.112;2022-07-29T03:40:07;5.55;;;5.05;;
25555;SDS011;13447;57.174;-2.112;2022-07-29T03:42:37;6.03;;;4.25;;
25555;SDS011;13447;57.174;-2.112;2022-07-29T03:45:07;7.47;;;5.07;;
25555;SDS011;13447;57.174;-2.112;2022-07-29T03:47:40;6.50;;;5.00;;
25555;SDS011;13447;57.174;-2.112;2022-07-29T03:50:16;4.20;;;3.05;;
25555;SDS011;13447;57.174;-2.112;2022-07-29T03:52:45;2.92;;;2.55;;
25555;SDS011;13447;57.174;-2.112;2022-07-29T03:55:14;6.57;;;4.32;;
25555;SDS011;13447;57.174;-2.112;2022-07-29T03:57:42;6.78;;;4.88;;
25555;SDS011;13447;57.174;-2.112;2022-07-29T04:00:10;3.83;;;3.05;;
25555;SDS011;13447;57.174;-2.112;2022-07-29T04:02:38;7.32;;;4.43;;
25555;SDS011;13447;57.174;-2.112;2022-07-29T04:05:11;5.50;;;4.30;;
25555;SDS011;13447;57.174;-2.112;2022-07-29T04:07:39;6.13;;;4.55;;
25555;SDS011;13447;57.174;-2.112;2022-07-29T04:10:06;4.07;;;3.63;;
25555;SDS011;13447;57.174;-2.112;2022-07-29T04:12:34;5.25;;;3.95;;
25555;SDS011;13447;57.174;-2.112;2022-07-29T04:15:04;7.53;;;5.57;;
25555;SDS011;13447;57.174;-2.112;2022-07-29T04:17:31;6.60;;;4.82;;
25555;SDS011;13447;57.174;-2.112;2022-07-29T04:19:59;7.43;;;6.65;;
25555;SDS011;13447;57.174;-2.112;2022-07-29T04:22:26;8.93;;;5.70;;
25555;SDS011;13447;57.174;-2.112;2022-07-29T04:24:53;11.95;;;7.35;;
25555;SDS011;13447;57.174;-2.112;2022-07-29T04:27:19;11.07;;;5.45;;
25555;SDS011;13447;57.174;-2.112;2022-07-29T04:29:46;7.53;;;6.32;;
25555;SDS011;13447;57.174;-2.112;2022-07-29T04:32:22;10.82;;;7.25;;
25555;SDS011;13447;57.174;-2.112;2022-07-29T04:34:53;8.95;;;7.38;;
25555;SDS011;13447;57.174;-2.112;2022-07-29T04:37:20;6.38;;;5.38;;
25555;SDS011;13447;57.174;-2.112;2022-07-29T04:39:47;8.65;;;5.97;;
25555;SDS011;13447;57.174;-2.112;2022-07-29T04:42:14;11.02;;;8.30;;
25555;SDS011;13447;57.174;-2.112;2022-07-29T04:44:42;15.02;;;10.25;;
25555;SDS011;13447;57.174;-2.112;2022-07-29T04:47:09;11.68;;;8.50;;
25555;SDS011;13447;57.174;-2.112;2022-07-29T04:49:39;11.32;;;6.47;;
25555;SDS011;13447;57.174;-2.112;2022-07-29T04:52:06;12.38;;;7.05;;
25555;SDS011;13447;57.174;-2.112;2022-07-29T04:54:33;7.20;;;5.72;;
25555;SDS011;13447;57.174;-2.112;2022-07-29T04:57:00;11.55;;;7.10;;
25555;SDS011;13447;57.174;-2.112;2022-07-29T04:59:27;13.07;;;8.48;;
25555;SDS011;13447;57.174;-2.112;2022-07-29T05:01:54;10.27;;;6.32;;
25555;SDS011;13447;57.174;-2.112;2022-07-29T05:04:21;10.88;;;7.00;;
25555;SDS011;13447;57.174;-2.112;2022-07-29T05:06:49;11.38;;;5.80;;
25555;SDS011;13447;57.174;-2.112;2022-07-29T05:09:16;10.00;;;6.45;;
25555;SDS011;13447;57.174;-2.112;2022-07-29T05:11:43;7.18;;;5.05;;
25555;SDS011;13447;57.174;-2.112;2022-07-29T05:14:10;12.75;;;8.20;;
25555;SDS011;13447;57.174;-2.112;2022-07-29T05:16:37;16.02;;;8.80;;
25555;SDS011;13447;57.174;-2.112;2022-07-29T05:19:05;10.40;;;6.43;;
25555;SDS011;13447;57.174;-2.112;2022-07-29T05:21:39;18.75;;;7.78;;
25555;SDS011;13447;57.174;-2.112;2022-07-29T05:24:06;16.00;;;7.07;;
25555;SDS011;13447;57.174;-2.112;2022-07-29T05:26:33;11.10;;;7.28;;
25555;SDS011;13447;57.174;-2.112;2022-07-29T05:29:00;11.75;;;6.85;;
25555;SDS011;13447;57.174;-2.112;2022-07-29T05:31:26;13.55;;;7.10;;
25555;SDS011;13447;57.174;-2.112;2022-07-29T05:33:53;10.93;;;6.22;;
25555;SDS011;13447;57.174;-2.112;2022-07-29T05:36:20;13.30;;;6.88;;
25555;SDS011;13447;57.174;-2.112;2022-07-29T05:38:47;17.05;;;8.15;;
25555;SDS011;13447;57.174;-2.112;2022-07-29T05:41:14;14.68;;;6.55;;
25555;SDS011;13447;57.174;-2.112;2022-07-29T05:43:41;8.82;;;6.03;;
25555;SDS011;13447;57.174;-2.112;2022-07-29T05:46:08;12.57;;;5.75;;
25555;SDS011;13447;57.174;-2.112;2022-07-29T05:48:35;8.23;;;4.38;;
25555;SDS011;13447;57.174;-2.112;2022-07-29T05:51:02;16.10;;;6.70;;
25555;SDS011;13447;57.174;-2.112;2022-07-29T05:53:29;8.40;;;4.78;;
25555;SDS011;13447;57.174;-2.112;2022-07-29T05:55:56;10.13;;;5.03;;
25555;SDS011;13447;57.174;-2.112;2022-07-29T06:00:53;12.00;;;5.80;;
25555;SDS011;13447;57.174;-2.112;2022-07-29T06:03:22;12.65;;;5.10;;
25555;SDS011;13447;57.174;-2.112;2022-07-29T06:05:49;8.35;;;3.97;;
25555;SDS011;13447;57.174;-2.112;2022-07-29T06:08:16;6.18;;;3.97;;
25555;SDS011;13447;57.174;-2.112;2022-07-29T06:10:43;10.25;;;4.35;;
25555;SDS011;13447;57.174;-2.112;2022-07-29T06:13:12;11.95;;;4.38;;
25555;SDS011;13447;57.174;-2.112;2022-07-29T06:15:39;7.47;;;3.92;;
25555;SDS011;13447;57.174;-2.112;2022-07-29T06:18:07;11.43;;;3.40;;
25555;SDS011;13447;57.174;-2.112;2022-07-29T06:20:36;11.57;;;3.20;;
25555;SDS011;13447;57.174;-2.112;2022-07-29T06:23:03;15.10;;;4.30;;
25555;SDS011;13447;57.174;-2.112;2022-07-29T06:25:30;8.57;;;2.90;;
25555;SDS011;13447;57.174;-2.112;2022-07-29T06:28:01;12.02;;;4.72;;
25555;SDS011;13447;57.174;-2.112;2022-07-29T06:30:28;8.02;;;3.20;;
25555;SDS011;13447;57.174;-2.112;2022-07-29T06:32:55;9.13;;;3.00;;
25555;SDS011;13447;57.174;-2.112;2022-07-29T06:35:22;6.18;;;3.03;;
25555;SDS011;13447;57.174;-2.112;2022-07-29T06:38:07;8.10;;;2.83;;
25555;SDS011;13447;57.174;-2.112;2022-07-29T06:40:54;7.80;;;3.00;;
25555;SDS011;13447;57.174;-2.112;2022-07-29T06:43:28;10.90;;;2.90;;
25555;SDS011;13447;57.174;-2.112;2022-07-29T06:45:59;9.00;;;2.72;;
25555;SDS011;13447;57.174;-2.112;2022-07-29T06:48:27;11.70;;;3.67;;
25555;SDS011;13447;57.174;-2.112;2022-07-29T06:50:55;9.57;;;3.20;;
25555;SDS011;13447;57.174;-2.112;2022-07-29T06:53:22;5.70;;;2.40;;
25555;SDS011;13447;57.174;-2.112;2022-07-29T06:55:49;11.57;;;3.67;;
25555;SDS011;13447;57.174;-2.112;2022-07-29T06:58:16;9.30;;;3.00;;
25555;SDS011;13447;57.174;-2.112;2022-07-29T07:00:46;5.95;;;2.38;;
25555;SDS011;13447;57.174;-2.112;2022-07-29T07:03:15;11.93;;;3.20;;
25555;SDS011;13447;57.174;-2.112;2022-07-29T07:05:43;9.43;;;3.08;;
25555;SDS011;13447;57.174;-2.112;2022-07-29T07:08:11;12.50;;;3.97;;
25555;SDS011;13447;57.174;-2.112;2022-07-29T07:10:39;15.15;;;4.15;;
25555;SDS011;13447;57.174;-2.112;2022-07-29T07:13:06;22.98;;;4.47;;
25555;SDS011;13447;57.174;-2.112;2022-07-29T07:15:33;6.82;;;2.38;;
25555;SDS011;13447;57.174;-2.112;2022-07-29T07:18:05;13.98;;;3.78;;
25555;SDS011;13447;57.174;-2.112;2022-07-29T07:20:32;12.07;;;4.38;;
25555;SDS011;13447;57.174;-2.112;2022-07-29T07:23:00;7.05;;;3.20;;
25555;SDS011;13447;57.174;-2.112;2022-07-29T07:25:27;6.82;;;2.55;;
25555;SDS011;13447;57.174;-2.112;2022-07-29T07:27:55;12.90;;;3.03;;
25555;SDS011;13447;57.174;-2.112;2022-07-29T07:30:22;6.25;;;2.50;;
25555;SDS011;13447;57.174;-2.112;2022-07-29T07:32:49;7.65;;;2.88;;
25555;SDS011;13447;57.174;-2.112;2022-07-29T07:35:16;10.85;;;3.03;;
25555;SDS011;13447;57.174;-2.112;2022-07-29T07:37:43;6.13;;;3.30;;
25555;SDS011;13447;57.174;-2.112;2022-07-29T07:40:10;8.65;;;3.20;;
25555;SDS011;13447;57.174;-2.112;2022-07-29T07:42:44;5.35;;;2.70;;
25555;SDS011;13447;57.174;-2.112;2022-07-29T07:45:11;4.78;;;2.22;;
25555;SDS011;13447;57.174;-2.112;2022-07-29T07:47:41;9.30;;;2.78;;
25555;SDS011;13447;57.174;-2.112;2022-07-29T07:50:10;6.95;;;2.55;;
25555;SDS011;13447;57.174;-2.112;2022-07-29T07:52:47;8.18;;;2.65;;
25555;SDS011;13447;57.174;-2.112;2022-07-29T07:55:16;8.80;;;2.95;;
25555;SDS011;13447;57.174;-2.112;2022-07-29T07:57:44;8.25;;;2.70;;
25555;SDS011;13447;57.174;-2.112;2022-07-29T08:00:12;6.65;;;3.45;;
25555;SDS011;13447;57.174;-2.112;2022-07-29T08:02:40;7.10;;;3.55;;
25555;SDS011;13447;57.174;-2.112;2022-07-29T08:05:09;9.52;;;2.83;;
25555;SDS011;13447;57.174;-2.112;2022-07-29T08:07:38;9.82;;;3.45;;
25555;SDS011;13447;57.174;-2.112;2022-07-29T08:10:05;7.78;;;2.88;;
25555;SDS011;13447;57.174;-2.112;2022-07-29T08:12:33;8.18;;;2.47;;
25555;SDS011;13447;57.174;-2.112;2022-07-29T08:15:00;8.77;;;2.92;;
25555;SDS011;13447;57.174;-2.112;2022-07-29T08:17:27;8.02;;;2.53;;
25555;SDS011;13447;57.174;-2.112;2022-07-29T08:19:54;3.92;;;2.50;;
25555;SDS011;13447;57.174;-2.112;2022-07-29T08:22:21;7.80;;;3.40;;
25555;SDS011;13447;57.174;-2.112;2022-07-29T08:24:48;7.10;;;3.03;;
25555;SDS011;13447;57.174;-2.112;2022-07-29T08:27:22;11.68;;;3.60;;
25555;SDS011;13447;57.174;-2.112;2022-07-29T08:32:36;5.10;;;2.78;;
25555;SDS011;13447;57.174;-2.112;2022-07-29T08:35:21;8.05;;;2.25;;
25555;SDS011;13447;57.174;-2.112;2022-07-29T08:37:50;6.35;;;2.67;;
25555;SDS011;13447;57.174;-2.112;2022-07-29T08:40:17;5.00;;;1.90;;
25555;SDS011;13447;57.174;-2.112;2022-07-29T08:42:57;6.15;;;2.10;;
25555;SDS011;13447;57.174;-2.112;2022-07-29T08:45:26;4.28;;;1.60;;
25555;SDS011;13447;57.174;-2.112;2022-07-29T08:47:55;9.60;;;2.45;;
25555;SDS011;13447;57.174;-2.112;2022-07-29T08:50:23;5.40;;;1.88;;
25555;SDS011;13447;57.174;-2.112;2022-07-29T08:52:50;6.35;;;1.80;;
25555;SDS011;13447;57.174;-2.112;2022-07-29T08:55:24;5.15;;;1.70;;
25555;SDS011;13447;57.174;-2.112;2022-07-29T08:57:51;6.25;;;1.85;;
25555;SDS011;13447;57.174;-2.112;2022-07-29T09:00:22;5.40;;;1.80;;
25555;SDS011;13447;57.174;-2.112;2022-07-29T09:02:54;5.75;;;1.67;;
25555;SDS011;13447;57.174;-2.112;2022-07-29T09:05:23;4.50;;;1.67;;
25555;SDS011;13447;57.174;-2.112;2022-07-29T09:07:52;3.40;;;1.60;;
25555;SDS011;13447;57.174;-2.112;2022-07-29T09:10:19;7.70;;;2.05;;
25555;SDS011;13447;57.174;-2.112;2022-07-29T09:12:46;6.82;;;1.80;;
25555;SDS011;13447;57.174;-2.112;2022-07-29T09:15:15;5.28;;;2.10;;
25555;SDS011;13447;57.174;-2.112;2022-07-29T09:17:45;6.18;;;1.90;;
25555;SDS011;13447;57.174;-2.112;2022-07-29T09:20:16;6.70;;;1.95;;
25555;SDS011;13447;57.174;-2.112;2022-07-29T09:22:48;10.50;;;2.28;;
25555;SDS011;13447;57.174;-2.112;2022-07-29T09:25:35;6.57;;;1.77;;
25555;SDS011;13447;57.174;-2.112;2022-07-29T09:28:10;8.23;;;1.95;;
25555;SDS011;13447;57.174;-2.112;2022-07-29T09:30:49;7.10;;;2.30;;
25555;SDS011;13447;57.174;-2.112;2022-07-29T09:33:18;5.80;;;2.03;;
25555;SDS011;13447;57.174;-2.112;2022-07-29T09:35:58;8.70;;;2.22;;
25555;SDS011;13447;57.174;-2.112;2022-07-29T09:38:32;6.70;;;2.00;;
25555;SDS011;13447;57.174;-2.112;2022-07-29T09:41:02;5.35;;;2.10;;
25555;SDS011;13447;57.174;-2.112;2022-07-29T09:43:31;6.18;;;2.30;;
25555;SDS011;13447;57.174;-2.112;2022-07-29T09:46:14;7.10;;;2.40;;
25555;SDS011;13447;57.174;-2.112;2022-07-29T09:48:41;7.95;;;2.17;;
25555;SDS011;13447;57.174;-2.112;2022-07-29T09:51:18;4.80;;;2.08;;
25555;SDS011;13447;57.174;-2.112;2022-07-29T09:53:51;3.60;;;1.52;;
25555;SDS011;13447;57.174;-2.112;2022-07-29T09:56:18;8.82;;;3.20;;
25555;SDS011;13447;57.174;-2.112;2022-07-29T09:58:46;10.98;;;2.70;;
25555;SDS011;13447;57.174;-2.112;2022-07-29T10:01:13;7.57;;;2.15;;
25555;SDS011;13447;57.174;-2.112;2022-07-29T10:03:51;8.75;;;2.20;;
25555;SDS011;13447;57.174;-2.112;2022-07-29T10:06:19;7.13;;;2.50;;
25555;SDS011;13447;57.174;-2.112;2022-07-29T10:08:46;8.43;;;2.67;;
25555;SDS011;13447;57.174;-2.112;2022-07-29T10:11:15;6.85;;;2.42;;
25555;SDS011;13447;57.174;-2.112;2022-07-29T10:13:43;8.70;;;2.70;;
25555;SDS011;13447;57.174;-2.112;2022-07-29T10:16:12;5.30;;;2.13;;
25555;SDS011;13447;57.174;-2.112;2022-07-29T10:18:41;4.80;;;2.00;;
25555;SDS011;13447;57.174;-2.112;2022-07-29T10:21:10;8.98;;;2.63;;
25555;SDS011;13447;57.174;-2.112;2022-07-29T10:23:57;8.02;;;2.17;;
25555;SDS011;13447;57.174;-2.112;2022-07-29T10:26:26;5.95;;;1.88;;
25555;SDS011;13447;57.174;-2.112;2022-07-29T10:28:55;4.28;;;1.98;;
25555;SDS011;13447;57.174;-2.112;2022-07-29T10:31:25;5.10;;;1.80;;
25555;SDS011;13447;57.174;-2.112;2022-07-29T10:36:56;5.32;;;2.20;;
25555;SDS011;13447;57.174;-2.112;2022-07-29T10:39:47;5.10;;;2.45;;
25555;SDS011;13447;57.174;-2.112;2022-07-29T10:42:25;7.82;;;2.22;;
25555;SDS011;13447;57.174;-2.112;2022-07-29T10:45:16;5.85;;;2.25;;
25555;SDS011;13447;57.174;-2.112;2022-07-29T10:47:44;7.25;;;2.30;;
25555;SDS011;13447;57.174;-2.112;2022-07-29T10:50:11;5.13;;;2.13;;
25555;SDS011;13447;57.174;-2.112;2022-07-29T10:52:52;3.22;;;1.33;;
25555;SDS011;13447;57.174;-2.112;2022-07-29T10:55:35;8.55;;;2.38;;
25555;SDS011;13447;57.174;-2.112;2022-07-29T10:58:13;4.55;;;1.90;;
25555;SDS011;13447;57.174;-2.112;2022-07-29T11:00:48;3.77;;;1.80;;
25555;SDS011;13447;57.174;-2.112;2022-07-29T11:06:17;5.00;;;2.05;;
25555;SDS011;13447;57.174;-2.112;2022-07-29T11:11:50;6.80;;;2.15;;
25555;SDS011;13447;57.174;-2.112;2022-07-29T11:14:19;4.53;;;1.92;;
25555;SDS011;13447;57.174;-2.112;2022-07-29T11:17:23;5.43;;;2.22;;
25555;SDS011;13447;57.174;-2.112;2022-07-29T11:19:51;5.78;;;2.28;;
25555;SDS011;13447;57.174;-2.112;2022-07-29T11:22:38;4.22;;;2.15;;
25555;SDS011;13447;57.174;-2.112;2022-07-29T11:25:16;9.30;;;2.17;;
25555;SDS011;13447;57.174;-2.112;2022-07-29T11:28:08;5.70;;;2.13;;
25555;SDS011;13447;57.174;-2.112;2022-07-29T11:30:52;4.15;;;1.70;;
25555;SDS011;13447;57.174;-2.112;2022-07-29T11:33:32;3.13;;;1.55;;
25555;SDS011;13447;57.174;-2.112;2022-07-29T11:36:20;5.72;;;1.70;;
25555;SDS011;13447;57.174;-2.112;2022-07-29T11:39:04;6.07;;;1.98;;
25555;SDS011;13447;57.174;-2.112;2022-07-29T11:45:00;5.38;;;1.77;;
25555;SDS011;13447;57.174;-2.112;2022-07-29T11:47:55;4.35;;;1.98;;
25555;SDS011;13447;57.174;-2.112;2022-07-29T11:50:46;5.68;;;2.45;;
25555;SDS011;13447;57.174;-2.112;2022-07-29T11:53:14;6.72;;;1.80;;
25555;SDS011;13447;57.174;-2.112;2022-07-29T11:55:42;4.00;;;1.95;;
25555;SDS011;13447;57.174;-2.112;2022-07-29T11:58:29;5.80;;;1.85;;
25555;SDS011;13447;57.174;-2.112;2022-07-29T12:00:57;4.10;;;1.88;;
25555;SDS011;13447;57.174;-2.112;2022-07-29T12:03:30;4.82;;;2.10;;
25555;SDS011;13447;57.174;-2.112;2022-07-29T12:06:02;5.45;;;2.03;;
25555;SDS011;13447;57.174;-2.112;2022-07-29T12:08:43;5.80;;;1.90;;
25555;SDS011;13447;57.174;-2.112;2022-07-29T12:11:16;7.35;;;2.13;;
25555;SDS011;13447;57.174;-2.112;2022-07-29T12:13:47;6.75;;;1.77;;
25555;SDS011;13447;57.174;-2.112;2022-07-29T12:16:14;3.63;;;1.75;;
25555;SDS011;13447;57.174;-2.112;2022-07-29T12:18:58;5.57;;;1.80;;
25555;SDS011;13447;57.174;-2.112;2022-07-29T12:21:27;3.70;;;1.95;;
25555;SDS011;13447;57.174;-2.112;2022-07-29T12:23:56;4.68;;;1.70;;
25555;SDS011;13447;57.174;-2.112;2022-07-29T12:26:31;5.38;;;1.98;;
25555;SDS011;13447;57.174;-2.112;2022-07-29T12:29:01;4.43;;;1.73;;
25555;SDS011;13447;57.174;-2.112;2022-07-29T12:31:29;6.28;;;2.08;;
25555;SDS011;13447;57.174;-2.112;2022-07-29T12:34:10;5.38;;;2.35;;
25555;SDS011;13447;57.174;-2.112;2022-07-29T12:36:38;6.60;;;1.98;;
25555;SDS011;13447;57.174;-2.112;2022-07-29T12:39:06;4.55;;;2.13;;
25555;SDS011;13447;57.174;-2.112;2022-07-29T12:41:35;4.70;;;1.85;;
25555;SDS011;13447;57.174;-2.112;2022-07-29T12:44:02;7.78;;;2.33;;
25555;SDS011;13447;57.174;-2.112;2022-07-29T12:46:29;4.85;;;2.13;;
25555;SDS011;13447;57.174;-2.112;2022-07-29T12:48:57;5.50;;;2.40;;
25555;SDS011;13447;57.174;-2.112;2022-07-29T12:51:32;6.53;;;2.45;;
25555;SDS011;13447;57.174;-2.112;2022-07-29T12:54:02;8.10;;;2.50;;
25555;SDS011;13447;57.174;-2.112;2022-07-29T12:56:30;7.10;;;2.75;;
25555;SDS011;13447;57.174;-2.112;2022-07-29T12:59:12;6.53;;;2.30;;
25555;SDS011;13447;57.174;-2.112;2022-07-29T13:01:47;7.70;;;2.30;;
25555;SDS011;13447;57.174;-2.112;2022-07-29T13:04:54;6.90;;;2.17;;
25555;SDS011;13447;57.174;-2.112;2022-07-29T13:07:23;6.25;;;1.65;;
25555;SDS011;13447;57.174;-2.112;2022-07-29T13:10:14;7.97;;;2.45;;
25555;SDS011;13447;57.174;-2.112;2022-07-29T13:13:08;4.85;;;1.75;;
25555;SDS011;13447;57.174;-2.112;2022-07-29T13:15:40;7.88;;;2.25;;
25555;SDS011;13447;57.174;-2.112;2022-07-29T13:21:13;7.18;;;2.55;;
25555;SDS011;13447;57.174;-2.112;2022-07-29T13:23:44;7.90;;;2.63;;
25555;SDS011;13447;57.174;-2.112;2022-07-29T13:26:11;9.10;;;3.00;;
25555;SDS011;13447;57.174;-2.112;2022-07-29T13:28:38;10.55;;;3.70;;
25555;SDS011;13447;57.174;-2.112;2022-07-29T13:31:09;9.00;;;3.17;;
25555;SDS011;13447;57.174;-2.112;2022-07-29T13:33:36;8.73;;;2.40;;
25555;SDS011;13447;57.174;-2.112;2022-07-29T13:36:03;14.20;;;3.13;;
25555;SDS011;13447;57.174;-2.112;2022-07-29T13:38:30;8.27;;;2.97;;
25555;SDS011;13447;57.174;-2.112;2022-07-29T13:40:57;8.07;;;2.70;;
25555;SDS011;13447;57.174;-2.112;2022-07-29T13:43:25;7.15;;;2.85;;
25555;SDS011;13447;57.174;-2.112;2022-07-29T13:45:52;10.20;;;3.40;;
25555;SDS011;13447;57.174;-2.112;2022-07-29T13:48:19;10.57;;;3.83;;
25555;SDS011;13447;57.174;-2.112;2022-07-29T13:50:46;9.05;;;2.78;;
25555;SDS011;13447;57.174;-2.112;2022-07-29T13:53:14;8.57;;;2.47;;
25555;SDS011;13447;57.174;-2.112;2022-07-29T13:55:43;8.43;;;3.30;;
25555;SDS011;13447;57.174;-2.112;2022-07-29T13:58:10;5.53;;;2.58;;
25555;SDS011;13447;57.174;-2.112;2022-07-29T14:00:37;12.95;;;3.58;;
25555;SDS011;13447;57.174;-2.112;2022-07-29T14:03:04;8.10;;;3.95;;
25555;SDS011;13447;57.174;-2.112;2022-07-29T14:05:32;5.80;;;2.63;;
25555;SDS011;13447;57.174;-2.112;2022-07-29T14:07:59;11.45;;;3.63;;
25555;SDS011;13447;57.174;-2.112;2022-07-29T14:10:26;6.40;;;2.65;;
25555;SDS011;13447;57.174;-2.112;2022-07-29T14:12:53;6.78;;;2.50;;
25555;SDS011;13447;57.174;-2.112;2022-07-29T14:15:20;15.55;;;3.65;;
25555;SDS011;13447;57.174;-2.112;2022-07-29T14:17:47;5.47;;;2.58;;
25555;SDS011;13447;57.174;-2.112;2022-07-29T14:20:15;8.15;;;3.95;;
25555;SDS011;13447;57.174;-2.112;2022-07-29T14:22:42;7.90;;;3.47;;
25555;SDS011;13447;57.174;-2.112;2022-07-29T14:25:10;9.35;;;3.63;;
25555;SDS011;13447;57.174;-2.112;2022-07-29T14:27:41;13.68;;;3.85;;
25555;SDS011;13447;57.174;-2.112;2022-07-29T14:30:09;13.68;;;5.05;;
25555;SDS011;13447;57.174;-2.112;2022-07-29T14:32:37;4.25;;;2.72;;
25555;SDS011;13447;57.174;-2.112;2022-07-29T14:35:04;11.98;;;3.63;;
25555;SDS011;13447;57.174;-2.112;2022-07-29T14:37:32;12.50;;;3.78;;
25555;SDS011;13447;57.174;-2.112;2022-07-29T14:40:05;10.90;;;3.85;;
25555;SDS011;13447;57.174;-2.112;2022-07-29T14:42:33;11.25;;;3.92;;
25555;SDS011;13447;57.174;-2.112;2022-07-29T14:45:00;6.90;;;2.40;;
25555;SDS011;13447;57.174;-2.112;2022-07-29T14:47:27;12.55;;;4.03;;
25555;SDS011;13447;57.174;-2.112;2022-07-29T14:49:54;8.38;;;3.70;;
25555;SDS011;13447;57.174;-2.112;2022-07-29T14:52:21;7.22;;;3.55;;
25555;SDS011;13447;57.174;-2.112;2022-07-29T14:54:48;12.27;;;4.20;;
25555;SDS011;13447;57.174;-2.112;2022-07-29T14:57:15;11.60;;;3.75;;
25555;SDS011;13447;57.174;-2.112;2022-07-29T14:59:42;10.70;;;3.78;;
25555;SDS011;13447;57.174;-2.112;2022-07-29T15:02:09;5.93;;;2.83;;
25555;SDS011;13447;57.174;-2.112;2022-07-29T15:04:38;12.48;;;3.35;;
25555;SDS011;13447;57.174;-2.112;2022-07-29T15:07:05;10.45;;;3.60;;
25555;SDS011;13447;57.174;-2.112;2022-07-29T15:09:32;13.05;;;3.90;;
25555;SDS011;13447;57.174;-2.112;2022-07-29T15:12:15;16.15;;;6.10;;
25555;SDS011;13447;57.174;-2.112;2022-07-29T15:14:42;9.95;;;4.43;;
25555;SDS011;13447;57.174;-2.112;2022-07-29T15:17:09;8.70;;;3.40;;
25555;SDS011;13447;57.174;-2.112;2022-07-29T15:19:36;13.73;;;4.40;;
25555;SDS011;13447;57.174;-2.112;2022-07-29T15:22:03;11.50;;;4.35;;
25555;SDS011;13447;57.174;-2.112;2022-07-29T15:24:33;13.35;;;3.72;;
25555;SDS011;13447;57.174;-2.112;2022-07-29T15:27:00;8.30;;;3.38;;
25555;SDS011;13447;57.174;-2.112;2022-07-29T15:29:27;8.68;;;3.50;;
25555;SDS011;13447;57.174;-2.112;2022-07-29T15:31:54;14.23;;;3.70;;
25555;SDS011;13447;57.174;-2.112;2022-07-29T15:34:21;8.55;;;4.05;;
25555;SDS011;13447;57.174;-2.112;2022-07-29T15:36:51;14.13;;;4.47;;